createdAt,value
2023-04-02T00:56:45.266Z,14.30
2023-04-02T00:58:52.320Z,14.30
2023-04-02T01:00:55.739Z,14.30
2023-04-02T01:03:31.174Z,14.30
2023-04-02T01:05:35.693Z,14.40
2023-04-02T01:07:52.881Z,14.40
2023-04-02T01:10:09.230Z,14.40
2023-04-02T01:12:39.128Z,14.40
2023-04-02T01:14:49.819Z,14.40
2023-04-02T01:16:56.229Z,14.50
2023-04-02T01:19:03.139Z,14.50
2023-04-02T01:21:25.552Z,14.50
2023-04-02T01:23:30.166Z,14.50
2023-04-02T01:25:37.820Z,14.50
2023-04-02T01:27:45.021Z,14.50
2023-04-02T01:29:50.296Z,14.50
2023-04-02T01:33:01.850Z,14.50
2023-04-02T01:35:06.112Z,14.60
2023-04-02T01:37:24.064Z,14.60
2023-04-02T01:39:39.992Z,14.60
2023-04-02T01:41:45.310Z,14.60
2023-04-02T01:43:50.036Z,14.60
2023-04-02T01:45:54.785Z,14.60
2023-04-02T01:47:58.575Z,14.60
2023-04-02T01:50:03.826Z,14.60
2023-04-02T01:52:08.755Z,14.50
2023-04-02T01:54:12.082Z,14.40
2023-04-02T01:56:15.413Z,14.50
2023-04-02T01:58:20.731Z,14.50
2023-04-02T02:00:24.429Z,14.40
2023-04-02T02:02:29.375Z,14.40
2023-04-02T02:06:34.083Z,14.30
2023-04-02T02:08:39.836Z,14.30
2023-04-02T02:10:43.234Z,14.30
2023-04-02T02:16:12.843Z,14.30
2023-04-02T02:18:18.441Z,14.30
2023-04-02T02:20:21.925Z,14.30
2023-04-02T02:22:28.487Z,14.20
2023-04-02T02:24:33.726Z,14.20
2023-04-02T02:26:38.613Z,14.20
2023-04-02T02:28:42.042Z,14.10
2023-04-02T02:30:47.552Z,14.20
2023-04-02T02:32:56.139Z,14.20
2023-04-02T02:35:04.025Z,14.10
2023-04-02T02:37:08.527Z,14.20
2023-04-02T02:39:14.696Z,14.20
2023-04-02T02:41:24.727Z,14.20
2023-04-02T02:43:28.461Z,14.20
2023-04-02T02:45:35.012Z,14.20
2023-04-02T02:47:47.974Z,14.10
2023-04-02T02:49:52.710Z,14.20
2023-04-02T02:52:00.195Z,14.20
2023-04-02T02:54:08.019Z,14.10
2023-04-02T02:56:12.436Z,14.10
2023-04-02T02:58:17.594Z,14.10
2023-04-02T03:00:24.648Z,14.10
2023-04-02T03:02:28.800Z,14.00
2023-04-02T03:04:36.592Z,14.10
2023-04-02T03:07:08.990Z,14.10
2023-04-02T03:09:18.740Z,14.10
2023-04-02T03:11:26.776Z,14.20
2023-04-02T03:13:33.299Z,14.20
2023-04-02T03:15:39.396Z,14.30
2023-04-02T03:17:44.217Z,14.30
2023-04-02T03:19:48.736Z,14.30
2023-04-02T03:26:06.732Z,14.50
2023-04-02T03:28:14.191Z,14.50
2023-04-02T03:30:42.069Z,14.60
2023-04-02T03:32:45.712Z,14.60
2023-04-02T03:34:50.860Z,14.60
2023-04-02T03:36:57.990Z,14.60
2023-04-02T03:39:05.709Z,14.60
2023-04-02T03:41:12.977Z,14.70
2023-04-02T03:43:20.483Z,14.70
2023-04-02T03:45:26.022Z,14.70
2023-04-02T03:47:33.068Z,14.70
2023-04-02T03:49:37.955Z,14.70
2023-04-02T03:52:00.141Z,14.70
2023-04-02T03:54:03.684Z,14.70
2023-04-02T03:56:07.779Z,14.80
2023-04-02T03:58:15.611Z,14.80
2023-04-02T04:00:21.318Z,14.80
2023-04-02T04:02:42.933Z,14.90
2023-04-02T04:04:46.489Z,14.90
2023-04-02T04:07:49.369Z,14.80
2023-04-02T04:09:52.892Z,14.80
2023-04-02T04:11:58.531Z,14.80
2023-04-02T04:14:04.740Z,14.80
2023-04-02T04:16:09.265Z,14.70
2023-04-02T04:18:29.678Z,14.70
2023-04-02T04:20:35.894Z,14.60
2023-04-02T04:22:41.020Z,14.60
2023-04-02T04:24:45.994Z,14.60
2023-04-02T04:26:53.593Z,14.60
2023-04-02T04:31:55.994Z,14.60
2023-04-02T04:34:05.443Z,14.70
2023-04-02T04:36:19.367Z,14.70
2023-04-02T04:38:27.974Z,14.70
2023-04-02T04:40:32.475Z,14.80
2023-04-02T04:42:36.503Z,14.80
2023-04-02T04:44:43.878Z,14.80
2023-04-02T04:46:48.803Z,14.80
2023-04-02T04:48:55.852Z,14.90
2023-04-02T04:51:10.722Z,14.90
2023-04-02T04:53:16.894Z,14.90
2023-04-02T04:55:31.095Z,14.90
2023-04-02T04:57:35.636Z,15.00
2023-04-02T05:00:16.864Z,15.00
2023-04-02T05:02:25.266Z,15.10
2023-04-02T05:04:40.677Z,15.00
2023-04-02T05:06:45.092Z,15.00
2023-04-02T05:08:49.817Z,14.90
2023-04-02T05:10:54.994Z,14.90
2023-04-02T05:15:00.137Z,14.80
2023-04-02T05:17:06.367Z,14.80
2023-04-02T05:19:12.128Z,14.80
2023-04-02T05:21:29.277Z,14.80
2023-04-02T05:23:36.052Z,14.80
2023-04-02T05:25:39.713Z,14.80
2023-04-02T05:27:45.633Z,14.80
2023-04-02T05:29:51.118Z,14.80
2023-04-02T05:31:57.056Z,14.80
2023-04-02T05:34:00.534Z,14.70
2023-04-02T05:36:05.515Z,14.70
2023-04-02T05:39:05.341Z,14.70
2023-04-02T05:41:18.459Z,14.60
2023-04-02T05:43:22.446Z,14.40
2023-04-02T05:45:29.272Z,14.30
2023-04-02T05:47:33.557Z,14.10
2023-04-02T05:49:39.099Z,14.00
2023-04-02T05:52:28.202Z,13.90
2023-04-02T05:54:34.009Z,13.80
2023-04-02T05:56:40.778Z,13.70
2023-04-02T05:58:47.458Z,13.60
2023-04-02T06:01:15.552Z,13.50
2023-04-02T06:09:42.585Z,13.60
2023-04-02T06:11:48.938Z,13.50
2023-04-02T06:13:52.276Z,13.50
2023-04-02T06:16:23.031Z,13.30
2023-04-02T06:18:27.394Z,13.10
2023-04-02T06:20:30.892Z,12.90
2023-04-02T06:22:36.385Z,12.70
2023-04-02T06:24:40.525Z,12.40
2023-04-02T06:26:44.951Z,12.30
2023-04-02T06:28:53.477Z,12.10
2023-04-02T06:31:01.134Z,11.90
2023-04-02T06:33:05.275Z,11.70
2023-04-02T06:35:12.968Z,11.60
2023-04-02T06:37:19.884Z,11.50
2023-04-02T06:39:24.371Z,11.40
2023-04-02T06:41:28.151Z,11.30
2023-04-02T06:43:44.499Z,11.10
2023-04-02T06:45:50.160Z,11.10
2023-04-02T06:47:53.865Z,10.90
2023-04-02T06:49:59.858Z,10.80
2023-04-02T06:52:04.312Z,10.80
2023-04-02T06:54:08.801Z,10.80
2023-04-02T06:56:14.719Z,10.90
2023-04-02T06:58:19.080Z,10.90
2023-04-02T07:00:26.939Z,10.90
2023-04-02T07:02:34.211Z,10.90
2023-04-02T07:04:37.862Z,10.90
2023-04-02T07:06:41.369Z,10.90
2023-04-02T07:08:45.258Z,10.90
2023-04-02T07:10:48.907Z,10.90
2023-04-02T07:12:52.422Z,10.80
2023-04-02T07:14:56.063Z,10.70
2023-04-02T07:16:59.785Z,10.70
2023-04-02T07:19:05.511Z,10.70
2023-04-02T07:21:09.113Z,10.70
2023-04-02T07:23:14.846Z,10.70
2023-04-02T07:25:20.338Z,10.70
2023-04-02T07:27:24.249Z,10.60
2023-04-02T07:29:28.052Z,10.60
2023-04-02T07:31:32.366Z,10.60
2023-04-02T07:33:36.441Z,10.40
2023-04-02T07:35:41.376Z,10.30
2023-04-02T07:40:09.390Z,10.20
2023-04-02T07:42:13.237Z,10.20
2023-04-02T07:44:17.274Z,10.30
2023-04-02T07:46:21.314Z,10.20
2023-04-02T07:48:24.904Z,10.20
2023-04-02T07:50:29.015Z,10.20
2023-04-02T07:52:34.053Z,10.10
2023-04-02T07:54:38.346Z,9.90
2023-04-02T07:56:42.891Z,9.90
2023-04-02T07:58:46.882Z,9.80
2023-04-02T08:00:50.354Z,9.70
2023-04-02T08:02:54.129Z,9.60
2023-04-02T08:05:40.585Z,9.60
2023-04-02T08:07:45.643Z,9.70
2023-04-02T08:09:49.467Z,9.70
2023-04-02T08:11:53.040Z,9.70
2023-04-02T08:13:56.433Z,9.70
2023-04-02T08:16:03.511Z,9.60
2023-04-02T08:18:29.180Z,9.60
2023-04-02T08:20:32.894Z,9.50
2023-04-02T08:22:36.507Z,9.40
2023-04-02T08:24:41.451Z,9.30
2023-04-02T08:26:45.524Z,9.40
2023-04-02T08:28:49.185Z,9.30
2023-04-02T08:30:52.823Z,9.20
2023-04-02T08:32:59.069Z,9.20
2023-04-02T08:35:02.795Z,9.10
2023-04-02T08:37:06.325Z,9.10
2023-04-02T08:39:11.929Z,9.00
2023-04-02T08:41:36.349Z,9.10
2023-04-02T08:44:07.216Z,9.10
2023-04-02T08:46:13.201Z,9.20
2023-04-02T08:48:16.991Z,9.40
2023-04-02T08:50:25.706Z,9.50
2023-04-02T08:52:30.189Z,9.40
2023-04-02T08:54:34.992Z,9.50
2023-04-02T08:56:41.616Z,9.50
2023-04-02T08:58:45.942Z,9.60
2023-04-02T09:01:02.863Z,9.80
2023-04-02T09:03:10.394Z,9.80
2023-04-02T09:05:19.546Z,9.90
2023-04-02T09:07:23.306Z,9.80
2023-04-02T09:09:27.354Z,9.70
2023-04-02T09:11:34.809Z,9.70
2023-04-02T09:13:42.572Z,9.70
2023-04-02T09:16:09.200Z,9.50
2023-04-02T09:18:14.680Z,9.50
2023-04-02T09:20:19.192Z,9.60
2023-04-02T09:22:22.912Z,9.60
2023-04-02T09:24:26.361Z,9.70
2023-04-02T09:26:32.752Z,9.90
2023-04-02T09:28:36.505Z,10.10
2023-04-02T09:30:54.933Z,10.20
2023-04-02T09:32:59.808Z,10.30
2023-04-02T09:35:26.597Z,10.20
2023-04-02T09:37:30.761Z,10.10
2023-04-02T09:39:35.777Z,10.20
2023-04-02T09:41:40.321Z,10.30
2023-04-02T09:43:43.906Z,10.20
2023-04-02T09:45:57.469Z,10.20
2023-04-02T09:52:21.844Z,10.40
2023-04-02T09:54:26.934Z,10.50
2023-04-02T09:56:30.735Z,10.60
2023-04-02T09:59:17.158Z,10.80
2023-04-02T10:01:30.268Z,11.00
2023-04-02T10:03:34.536Z,10.90
2023-04-02T10:05:40.986Z,10.90
2023-04-02T10:07:46.193Z,10.80
2023-04-02T10:09:50.350Z,10.70
2023-04-02T10:11:54.178Z,10.50
2023-04-02T10:13:59.529Z,10.50
2023-04-02T10:16:05.205Z,10.70
2023-04-02T10:18:14.828Z,10.90
2023-04-02T10:20:20.185Z,11.20
2023-04-02T10:22:24.172Z,11.40
2023-04-02T10:24:28.921Z,11.50
2023-04-02T10:26:52.993Z,11.50
2023-04-02T10:29:06.890Z,11.50
2023-04-02T10:33:26.116Z,11.10
2023-04-02T10:35:39.683Z,10.80
2023-04-02T10:41:00.891Z,11.10
2023-04-02T10:43:30.700Z,11.20
2023-04-02T10:45:39.002Z,11.30
2023-04-02T10:47:44.746Z,11.30
2023-04-02T10:49:51.594Z,11.00
2023-04-02T10:51:59.931Z,10.70
2023-04-02T10:54:07.766Z,10.60
2023-04-02T10:56:13.456Z,10.60
2023-04-02T10:58:23.730Z,10.70
2023-04-02T11:00:28.292Z,10.60
2023-04-02T11:02:36.224Z,10.40
2023-04-02T11:04:43.122Z,10.30
2023-04-02T11:06:48.957Z,10.10
2023-04-02T11:08:53.301Z,10.30
2023-04-02T11:10:59.794Z,10.40
2023-04-02T11:13:06.764Z,10.30
2023-04-02T11:15:15.388Z,10.30
2023-04-02T11:17:20.990Z,10.30
2023-04-02T11:19:27.353Z,10.30
2023-04-02T11:21:55.158Z,10.30
2023-04-02T11:24:03.925Z,10.30
2023-04-02T11:26:30.186Z,10.10
2023-04-02T11:28:33.964Z,10.20
2023-04-02T11:30:37.521Z,10.40
2023-04-02T11:32:42.956Z,10.50
2023-04-02T11:38:51.761Z,10.80
2023-04-02T11:40:58.279Z,11.30
2023-04-02T11:43:39.097Z,11.30
2023-04-02T11:45:56.355Z,11.60
2023-04-02T11:48:31.484Z,11.80
2023-04-02T11:50:36.046Z,11.90
2023-04-02T11:53:28.365Z,12.10
2023-04-02T11:55:33.313Z,12.00
2023-04-02T11:57:47.447Z,11.90
2023-04-02T11:59:56.628Z,12.00
2023-04-02T12:02:05.097Z,11.80
2023-04-02T12:04:45.682Z,11.70
2023-04-02T12:06:55.063Z,11.50
2023-04-02T12:09:12.852Z,11.20
2023-04-02T12:11:16.901Z,11.00
2023-04-02T12:13:22.176Z,10.90
2023-04-02T12:15:51.062Z,10.80
2023-04-02T12:17:54.721Z,10.70
2023-04-02T12:19:59.415Z,10.90
2023-04-02T12:22:03.105Z,11.00
2023-04-02T12:24:07.311Z,11.00
2023-04-02T12:26:32.205Z,11.00
2023-04-02T12:28:38.956Z,11.10
2023-04-02T12:30:42.920Z,11.10
2023-04-02T12:32:46.814Z,11.10
2023-04-02T12:35:02.914Z,11.10
2023-04-02T12:37:07.221Z,11.20
2023-04-02T12:39:17.472Z,11.30
2023-04-02T12:41:25.554Z,11.50
2023-04-02T12:43:29.558Z,11.50
2023-04-02T12:45:34.622Z,11.50
2023-04-02T12:47:38.260Z,11.40
2023-04-02T12:49:42.078Z,11.50
2023-04-02T12:51:51.730Z,11.40
2023-04-02T12:53:56.520Z,11.20
2023-04-02T12:55:59.976Z,11.20
2023-04-02T12:58:03.912Z,11.40
2023-04-02T13:00:37.515Z,11.50
2023-04-02T13:02:46.101Z,11.40
2023-04-02T13:05:10.479Z,11.40
2023-04-02T13:07:16.954Z,11.40
2023-04-02T13:09:30.129Z,11.30
2023-04-02T13:11:37.430Z,11.30
2023-04-02T13:13:41.692Z,11.00
2023-04-02T13:15:46.685Z,11.00
2023-04-02T13:18:02.738Z,11.10
2023-04-02T13:20:32.406Z,11.00
2023-04-02T13:22:41.437Z,10.90
2023-04-02T13:24:45.124Z,10.80
2023-04-02T13:26:50.099Z,10.80
2023-04-02T13:29:02.370Z,10.60
2023-04-02T13:31:07.712Z,10.40
2023-04-02T13:33:15.340Z,10.30
2023-04-02T13:35:22.602Z,10.40
2023-04-02T13:37:38.103Z,10.50
2023-04-02T13:39:44.158Z,10.60
2023-04-02T13:41:48.891Z,10.50
2023-04-02T13:44:03.865Z,10.40
2023-04-02T13:46:09.248Z,10.30
2023-04-02T13:48:15.980Z,10.30
2023-04-02T13:50:20.285Z,10.40
2023-04-02T13:52:23.908Z,10.30
2023-04-02T13:54:31.307Z,10.30
2023-04-02T13:56:34.863Z,10.00
2023-04-02T13:58:38.469Z,10.00
2023-04-02T14:00:41.945Z,10.10
2023-04-02T14:02:48.474Z,10.20
2023-04-02T14:04:53.013Z,10.20
2023-04-02T14:07:35.848Z,10.10
2023-04-02T14:10:02.276Z,10.10
2023-04-02T14:12:08.102Z,10.10
2023-04-02T14:14:22.311Z,10.00
2023-04-02T14:16:33.903Z,9.90
2023-04-02T14:19:15.277Z,9.90
2023-04-02T14:21:21.486Z,9.90
2023-04-02T14:23:36.030Z,9.90
2023-04-02T14:25:47.347Z,9.80
2023-04-02T14:27:54.588Z,9.80
2023-04-02T14:30:00.833Z,9.70
2023-04-02T14:32:06.630Z,9.80
2023-04-02T14:34:13.743Z,9.70
2023-04-02T14:36:24.303Z,9.70
2023-04-02T14:38:30.655Z,9.70
2023-04-02T14:40:36.584Z,9.90
2023-04-02T14:42:41.935Z,9.80
2023-04-02T14:44:49.004Z,9.90
2023-04-02T14:46:52.447Z,9.70
2023-04-02T14:48:57.521Z,9.50
2023-04-02T14:53:15.866Z,9.50
2023-04-02T14:55:24.063Z,9.50
2023-04-02T14:57:28.655Z,9.70
2023-04-02T14:59:36.883Z,9.70
2023-04-02T15:01:52.755Z,9.70
2023-04-02T15:03:59.452Z,9.50
2023-04-02T15:06:14.487Z,9.50
2023-04-02T15:08:22.926Z,9.60
2023-04-02T15:10:30.453Z,9.40
2023-04-02T15:12:52.814Z,9.30
2023-04-02T15:14:57.497Z,9.50
2023-04-02T15:17:01.652Z,9.60
2023-04-02T15:19:06.309Z,9.50
2023-04-02T15:21:49.733Z,9.30
2023-04-02T15:23:57.787Z,9.30
2023-04-02T15:26:04.845Z,9.20
2023-04-02T15:28:21.101Z,9.10
2023-04-02T15:30:26.079Z,9.20
2023-04-02T15:32:32.337Z,9.20
2023-04-02T15:34:37.040Z,9.10
2023-04-02T15:37:16.109Z,9.10
2023-04-02T15:39:40.098Z,9.00
2023-04-02T15:41:47.016Z,8.90
2023-04-02T15:44:02.532Z,9.00
2023-04-02T15:46:11.869Z,8.90
2023-04-02T15:48:33.210Z,8.80
2023-04-02T15:50:44.146Z,8.80
2023-04-02T15:52:49.942Z,8.80
2023-04-02T15:55:01.310Z,8.80
2023-04-02T15:57:11.871Z,8.70
2023-04-02T15:59:42.983Z,8.60
2023-04-02T16:01:51.607Z,8.50
2023-04-02T16:04:05.169Z,8.40
2023-04-02T16:06:18.131Z,8.40
2023-04-02T16:08:38.796Z,8.60
2023-04-02T16:10:45.301Z,8.70
2023-04-02T16:12:49.697Z,8.70
2023-04-02T16:14:53.512Z,8.60
2023-04-02T16:17:27.708Z,8.50
2023-04-02T16:19:33.679Z,8.40
2023-04-02T16:21:40.186Z,8.50
2023-04-02T16:23:44.181Z,8.60
2023-04-02T16:25:56.620Z,8.50
2023-04-02T16:28:05.155Z,8.60
2023-04-02T16:30:52.784Z,8.50
2023-04-02T16:33:03.067Z,8.50
2023-04-02T16:35:27.223Z,8.50
2023-04-02T16:37:35.774Z,8.40
2023-04-02T16:39:41.151Z,8.50
2023-04-02T16:41:53.776Z,8.50
2023-04-02T16:44:01.720Z,8.40
2023-04-02T16:46:07.346Z,8.40
2023-04-02T16:48:24.065Z,8.30
2023-04-02T16:50:34.818Z,8.30
2023-04-02T16:52:43.126Z,8.40
2023-04-02T16:54:49.749Z,8.30
2023-04-02T16:57:07.551Z,8.50
2023-04-02T16:59:17.222Z,8.50
2023-04-02T17:01:23.517Z,8.50
2023-04-02T17:03:48.206Z,8.50
2023-04-02T17:05:55.729Z,8.70
2023-04-02T17:08:14.672Z,8.70
2023-04-02T17:10:30.388Z,8.70
2023-04-02T17:12:37.372Z,8.50
2023-04-02T17:14:42.682Z,8.50
2023-04-02T17:16:47.255Z,8.50
2023-04-02T17:18:52.019Z,8.60
2023-04-02T17:20:55.894Z,8.50
2023-04-02T17:22:59.684Z,8.60
2023-04-02T17:25:04.944Z,8.50
2023-04-02T17:27:16.719Z,8.50
2023-04-02T17:29:25.271Z,8.50
2023-04-02T17:31:31.092Z,8.50
2023-04-02T17:33:34.715Z,8.60
2023-04-02T17:35:45.489Z,8.50
2023-04-02T17:37:52.553Z,8.60
2023-04-02T17:39:59.764Z,8.50
2023-04-02T17:42:07.940Z,8.40
2023-04-02T17:44:33.157Z,8.40
2023-04-02T17:46:37.405Z,8.50
2023-04-02T17:48:43.794Z,8.30
2023-04-02T17:50:52.212Z,8.20
2023-04-02T17:52:58.524Z,8.30
2023-04-02T17:55:22.187Z,8.10
2023-04-02T17:57:46.765Z,8.00
2023-04-02T18:00:02.483Z,8.10
2023-04-02T18:02:14.714Z,8.10
2023-04-02T18:04:23.632Z,8.00
2023-04-02T18:06:29.572Z,8.00
2023-04-02T18:08:35.001Z,8.10
2023-04-02T18:10:42.582Z,8.00
2023-04-02T18:13:13.964Z,8.10
2023-04-02T18:15:46.724Z,8.10
2023-04-02T18:17:51.398Z,8.20
2023-04-02T18:19:57.823Z,8.20
2023-04-02T18:22:02.998Z,8.20
2023-04-02T18:24:26.142Z,8.10
2023-04-02T18:26:34.612Z,8.10
2023-04-02T18:28:47.024Z,8.10
2023-04-02T18:30:58.002Z,8.20
2023-04-02T18:33:21.968Z,8.30
2023-04-02T18:35:26.551Z,8.30
2023-04-02T18:37:33.771Z,8.30
2023-04-02T18:39:42.781Z,8.20
2023-04-02T18:41:49.966Z,8.20
2023-04-02T18:44:01.560Z,8.30
2023-04-02T18:46:07.556Z,8.40
2023-04-02T18:48:19.511Z,8.50
2023-04-02T18:50:25.660Z,8.40
2023-04-02T18:52:29.370Z,8.50
2023-04-02T18:54:37.106Z,8.40
2023-04-02T18:56:40.888Z,8.40
2023-04-02T18:58:50.212Z,8.50
2023-04-02T19:00:54.192Z,8.50
2023-04-02T19:03:02.798Z,8.50
2023-04-02T19:05:17.191Z,8.50
2023-04-02T19:07:21.416Z,8.50
2023-04-02T19:09:26.013Z,8.40
2023-04-02T19:11:31.228Z,8.40
2023-04-02T19:13:34.898Z,8.40
2023-04-02T19:15:41.497Z,8.50
2023-04-02T19:17:47.102Z,8.60
2023-04-02T19:19:57.486Z,8.50
2023-04-02T19:22:16.633Z,8.50
2023-04-02T19:27:21.214Z,8.50
2023-04-02T19:29:32.961Z,8.50
2023-04-02T19:31:41.788Z,8.50
2023-04-02T19:33:49.514Z,8.50
2023-04-02T19:35:57.301Z,8.50
2023-04-02T19:38:04.355Z,8.60
2023-04-02T19:40:24.506Z,8.50
2023-04-02T19:42:49.603Z,8.50
2023-04-02T19:44:53.614Z,8.30
2023-04-02T19:46:58.185Z,8.20
2023-04-02T19:49:04.651Z,8.20
2023-04-02T19:51:09.764Z,8.30
2023-04-02T19:53:13.616Z,8.10
2023-04-02T19:55:17.190Z,8.20
2023-04-02T19:57:28.529Z,8.10
2023-04-02T19:59:35.134Z,8.10
2023-04-02T20:01:38.612Z,8.00
2023-04-02T20:03:42.163Z,8.00
2023-04-02T20:05:45.829Z,8.00
2023-04-02T20:08:14.150Z,7.80
2023-04-02T20:10:17.962Z,7.90
2023-04-02T20:12:21.464Z,7.90
2023-04-02T20:14:25.005Z,7.90
2023-04-02T20:16:28.622Z,7.80
2023-04-02T20:18:32.192Z,7.80
2023-04-02T20:20:36.073Z,7.70
2023-04-02T20:22:45.200Z,7.70
2023-04-02T20:24:51.020Z,7.50
2023-04-02T20:26:54.614Z,7.50
2023-04-02T20:28:58.194Z,7.40
2023-04-02T20:31:09.033Z,7.40
2023-04-02T20:33:14.945Z,7.40
2023-04-02T20:35:18.643Z,7.30
2023-04-02T20:37:22.233Z,7.30
2023-04-02T20:39:25.692Z,7.30
2023-04-02T20:41:30.894Z,7.20
2023-04-02T20:43:34.592Z,7.10
2023-04-02T20:45:38.073Z,7.20
2023-04-02T20:47:41.586Z,7.10
2023-04-02T20:49:48.535Z,7.10
2023-04-02T20:51:52.847Z,7.10
2023-04-02T20:53:56.482Z,7.10
2023-04-02T20:56:05.750Z,7.20
2023-04-02T20:58:10.900Z,7.30
2023-04-02T21:00:32.207Z,7.40
2023-04-02T21:02:35.877Z,7.40
2023-04-02T21:04:39.544Z,7.50
2023-04-02T21:06:43.133Z,7.60
2023-04-02T21:08:46.792Z,7.70
2023-04-02T21:10:50.804Z,7.70
2023-04-02T21:13:23.802Z,7.80
2023-04-02T21:15:27.619Z,7.90
2023-04-02T21:17:31.279Z,8.00
2023-04-02T21:19:52.358Z,8.00
2023-04-02T21:25:12.742Z,8.30
2023-04-02T21:27:16.946Z,8.40
2023-04-02T21:29:25.174Z,8.50
2023-04-02T21:31:34.527Z,8.50
2023-04-02T21:33:38.883Z,8.50
2023-04-02T21:35:42.457Z,8.60
2023-04-02T21:38:07.590Z,8.60
2023-04-02T21:40:11.435Z,8.60
2023-04-02T21:42:15.392Z,8.70
2023-04-02T21:44:20.087Z,8.70
2023-04-02T21:46:27.311Z,8.70
2023-04-02T21:48:31.682Z,8.70
2023-04-02T21:50:35.286Z,8.80
2023-04-02T21:52:39.743Z,8.70
2023-04-02T21:54:43.274Z,8.70
2023-04-02T21:57:29.585Z,8.70
2023-04-02T21:59:33.197Z,8.60
2023-04-02T22:01:39.009Z,8.70
2023-04-02T22:03:42.574Z,8.70
2023-04-02T22:05:46.143Z,8.80
2023-04-02T22:07:49.518Z,8.90
2023-04-02T22:14:23.776Z,8.90
2023-04-02T22:16:32.160Z,8.90
2023-04-02T22:18:43.470Z,8.90
2023-04-02T22:20:46.933Z,8.90
2023-04-02T22:22:56.663Z,8.80
2023-04-02T22:25:00.705Z,8.80
2023-04-02T22:27:04.226Z,8.80
2023-04-02T22:29:07.885Z,8.70
2023-04-02T22:31:13.017Z,8.70
2023-04-02T22:33:36.409Z,8.60
2023-04-02T22:35:41.561Z,8.60
2023-04-02T22:37:45.079Z,8.50
2023-04-02T22:39:48.609Z,8.60
2023-04-02T22:41:52.098Z,8.60
2023-04-02T22:43:56.356Z,8.50
2023-04-02T22:45:59.977Z,8.50
2023-04-02T22:48:03.478Z,8.50
2023-04-02T22:50:08.132Z,8.50
2023-04-02T22:52:49.223Z,8.50
2023-04-02T22:54:54.566Z,8.50
2023-04-02T22:56:58.146Z,8.50
2023-04-02T22:59:02.799Z,8.50
2023-04-02T23:01:15.344Z,8.50
2023-04-02T23:03:18.885Z,8.50
2023-04-02T23:05:43.479Z,8.40
2023-04-02T23:07:47.053Z,8.40
2023-04-02T23:09:50.764Z,8.40
2023-04-02T23:11:55.757Z,8.40
2023-04-02T23:13:59.447Z,8.30
2023-04-02T23:16:03.073Z,8.30
2023-04-02T23:18:06.680Z,8.20
2023-04-02T23:20:12.286Z,8.20
2023-04-02T23:22:22.388Z,8.10
2023-04-02T23:24:25.954Z,8.20
2023-04-02T23:26:31.512Z,8.20
2023-04-02T23:28:36.818Z,8.20
2023-04-02T23:30:41.456Z,8.20
2023-04-02T23:32:45.009Z,8.10
2023-04-02T23:34:48.696Z,8.10
2023-04-02T23:36:56.174Z,8.10
2023-04-02T23:39:04.200Z,8.20
2023-04-02T23:41:08.050Z,8.20
2023-04-02T23:43:11.604Z,8.20
2023-04-02T23:45:21.087Z,8.20
2023-04-02T23:47:24.540Z,8.20
2023-04-02T23:49:47.994Z,8.30
2023-04-02T23:51:51.632Z,8.40
2023-04-02T23:54:00.475Z,8.40
2023-04-02T23:56:05.481Z,8.50
2023-04-02T23:58:09.613Z,8.50
